createdAt,value
2023-04-21T00:01:52.738Z,73.93
2023-04-21T00:04:22.248Z,74.10
2023-04-21T00:06:52.720Z,74.32
2023-04-21T00:09:22.122Z,73.79
2023-04-21T00:11:52.812Z,74.12
2023-04-21T00:14:22.262Z,74.18
2023-04-21T00:16:52.854Z,74.17
2023-04-21T00:19:23.384Z,74.03
2023-04-21T00:21:58.048Z,74.05
2023-04-21T00:24:27.570Z,74.03
2023-04-21T00:26:56.802Z,73.82
2023-04-21T00:29:25.945Z,73.65
2023-04-21T00:31:55.292Z,73.65
2023-04-21T00:34:24.668Z,73.79
2023-04-21T00:36:53.955Z,73.63
2023-04-21T00:39:23.613Z,73.64
2023-04-21T00:41:53.986Z,73.54
2023-04-21T00:44:23.602Z,73.44
2023-04-21T00:46:53.111Z,73.33
2023-04-21T00:49:25.576Z,73.25
2023-04-21T00:51:55.766Z,73.24
2023-04-21T00:54:25.818Z,73.29
2023-04-21T00:56:57.903Z,73.54
2023-04-21T00:59:27.225Z,73.51
2023-04-21T01:01:56.648Z,73.47
2023-04-21T01:04:26.779Z,73.43
2023-04-21T01:06:56.213Z,73.24
2023-04-21T01:09:26.512Z,73.00
2023-04-21T01:12:06.640Z,72.91
2023-04-21T01:14:36.612Z,72.94
2023-04-21T01:17:07.243Z,73.02
2023-04-21T01:19:39.490Z,73.15
2023-04-21T01:22:11.244Z,73.26
2023-04-21T01:24:41.599Z,73.30
2023-04-21T01:27:12.054Z,73.39
2023-04-21T01:29:42.931Z,73.29
2023-04-21T01:32:15.283Z,73.43
2023-04-21T01:34:45.239Z,73.48
2023-04-21T01:37:16.761Z,73.46
2023-04-21T01:39:52.764Z,73.48
2023-04-21T01:42:24.725Z,73.52
2023-04-21T01:44:55.899Z,73.79
2023-04-21T01:47:27.285Z,73.90
2023-04-21T01:49:56.645Z,74.15
2023-04-21T01:52:27.266Z,74.23
2023-04-21T01:54:56.669Z,74.24
2023-04-21T01:57:26.334Z,74.27
2023-04-21T01:59:57.064Z,74.31
2023-04-21T02:02:26.947Z,74.34
2023-04-21T02:04:57.111Z,74.35
2023-04-21T02:07:27.982Z,74.42
2023-04-21T02:09:57.335Z,74.69
2023-04-21T02:12:28.013Z,74.86
2023-04-21T02:14:57.276Z,75.22
2023-04-21T02:17:27.255Z,75.19
2023-04-21T02:19:57.414Z,75.27
2023-04-21T02:22:27.674Z,75.63
2023-04-21T02:24:57.580Z,75.65
2023-04-21T02:27:27.702Z,75.82
2023-04-21T02:29:58.138Z,75.86
2023-04-21T02:32:28.942Z,76.08
2023-04-21T02:34:58.241Z,75.95
2023-04-21T02:37:28.917Z,75.97
2023-04-21T02:39:58.243Z,76.08
2023-04-21T02:42:28.183Z,76.09
2023-04-21T02:44:58.452Z,76.11
2023-04-21T02:47:28.574Z,76.03
2023-04-21T02:49:58.799Z,75.98
2023-04-21T02:52:28.909Z,75.97
2023-04-21T02:54:59.123Z,76.22
2023-04-21T02:57:31.353Z,76.33
2023-04-21T03:00:00.753Z,76.69
2023-04-21T03:02:30.868Z,76.96
2023-04-21T03:05:00.266Z,76.92
2023-04-21T03:07:29.826Z,77.02
2023-04-21T03:09:59.787Z,76.76
2023-04-21T03:12:30.140Z,76.69
2023-04-21T03:15:00.116Z,76.86
2023-04-21T03:17:32.925Z,77.04
2023-04-21T03:20:06.372Z,76.91
2023-04-21T03:22:35.779Z,77.07
2023-04-21T03:25:06.881Z,77.18
2023-04-21T03:27:36.521Z,77.25
2023-04-21T03:30:13.141Z,77.67
2023-04-21T03:32:43.160Z,77.94
2023-04-21T03:35:14.973Z,77.95
2023-04-21T03:37:44.496Z,77.89
2023-04-21T03:40:13.678Z,77.67
2023-04-21T03:42:43.030Z,77.73
2023-04-21T03:45:13.077Z,77.64
2023-04-21T03:47:42.539Z,77.74
2023-04-21T03:50:11.956Z,77.78
2023-04-21T03:52:41.569Z,77.69
2023-04-21T03:55:11.137Z,77.69
2023-04-21T03:57:41.199Z,77.62
2023-04-21T04:00:13.068Z,77.73
2023-04-21T04:02:43.547Z,79.24
2023-04-21T04:05:12.989Z,80.88
2023-04-21T04:07:42.445Z,80.90
2023-04-21T04:10:11.799Z,79.81
2023-04-21T04:12:40.946Z,77.47
2023-04-21T04:15:13.867Z,78.04
2023-04-21T04:17:43.269Z,78.51
2023-04-21T04:20:12.609Z,78.05
2023-04-21T04:22:41.842Z,77.14
2023-04-21T04:25:12.408Z,77.05
2023-04-21T04:27:41.559Z,76.51
2023-04-21T04:30:12.032Z,76.02
2023-04-21T04:32:41.550Z,75.97
2023-04-21T04:35:13.147Z,75.56
2023-04-21T04:37:42.372Z,75.52
2023-04-21T04:40:12.918Z,74.75
2023-04-21T04:42:42.491Z,74.35
2023-04-21T04:45:13.406Z,74.30
2023-04-21T04:47:42.993Z,74.33
2023-04-21T04:50:12.569Z,74.29
2023-04-21T04:52:41.890Z,74.31
2023-04-21T04:55:11.177Z,74.46
2023-04-21T04:57:40.532Z,74.43
2023-04-21T05:00:14.026Z,74.41
2023-04-21T05:02:43.828Z,74.55
2023-04-21T05:05:13.413Z,74.74
2023-04-21T05:07:42.864Z,74.62
2023-04-21T05:10:12.577Z,74.63
2023-04-21T05:12:41.796Z,74.64
2023-04-21T05:15:12.002Z,74.53
2023-04-21T05:17:41.522Z,74.66
2023-04-21T05:20:13.458Z,74.69
2023-04-21T05:23:17.391Z,74.75
2023-04-21T05:25:47.055Z,74.49
2023-04-21T05:28:16.837Z,74.31
2023-04-21T05:30:46.093Z,74.05
2023-04-21T05:33:18.015Z,74.05
2023-04-21T05:35:47.360Z,73.94
2023-04-21T05:38:17.690Z,73.89
2023-04-21T05:40:55.067Z,73.89
2023-04-21T05:43:24.682Z,73.69
2023-04-21T05:45:54.244Z,73.66
2023-04-21T05:48:23.992Z,73.54
2023-04-21T05:50:53.831Z,73.33
2023-04-21T05:53:23.948Z,72.88
2023-04-21T05:55:57.671Z,73.07
2023-04-21T05:58:28.134Z,72.71
2023-04-21T06:01:00.400Z,72.32
2023-04-21T06:03:31.957Z,72.20
2023-04-21T06:06:02.886Z,72.05
2023-04-21T06:08:35.502Z,71.81
2023-04-21T06:11:06.633Z,71.81
2023-04-21T06:13:38.558Z,71.50
2023-04-21T06:16:11.423Z,70.84
2023-04-21T06:18:47.825Z,70.94
2023-04-21T06:21:17.224Z,70.90
2023-04-21T06:23:57.189Z,70.32
2023-04-21T06:26:27.664Z,70.39
2023-04-21T06:28:58.482Z,69.90
2023-04-21T06:31:28.252Z,69.63
2023-04-21T06:33:57.608Z,69.34
2023-04-21T06:36:28.450Z,69.30
2023-04-21T06:38:57.890Z,69.08
2023-04-21T06:41:28.443Z,68.80
2023-04-21T06:44:01.774Z,68.13
2023-04-21T06:46:34.361Z,68.04
2023-04-21T06:49:04.713Z,67.98
2023-04-21T06:51:34.527Z,67.50
2023-04-21T06:54:05.017Z,67.05
2023-04-21T06:56:37.496Z,66.65
2023-04-21T06:59:10.563Z,66.82
2023-04-21T07:01:42.860Z,66.68
2023-04-21T07:04:12.054Z,66.29
2023-04-21T07:06:43.050Z,65.45
2023-04-21T07:09:13.060Z,64.99
2023-04-21T07:11:42.513Z,65.14
2023-04-21T07:14:11.740Z,65.31
2023-04-21T07:16:41.576Z,64.51
2023-04-21T07:19:11.293Z,63.83
2023-04-21T07:21:42.551Z,63.71
2023-04-21T07:24:11.924Z,63.05
2023-04-21T07:26:42.405Z,62.46
2023-04-21T07:29:12.071Z,62.36
2023-04-21T07:31:43.154Z,61.67
2023-04-21T07:34:15.240Z,61.00
2023-04-21T07:36:44.593Z,61.26
2023-04-21T07:39:13.864Z,61.45
2023-04-21T07:41:47.452Z,60.07
2023-04-21T07:44:17.470Z,59.37
2023-04-21T07:46:46.816Z,59.14
2023-04-21T07:49:16.697Z,59.24
2023-04-21T07:51:46.278Z,58.67
2023-04-21T07:54:15.909Z,58.96
2023-04-21T07:56:45.508Z,58.42
2023-04-21T07:59:14.913Z,58.37
2023-04-21T08:01:44.227Z,58.02
2023-04-21T08:04:13.638Z,56.67
2023-04-21T08:06:45.811Z,56.73
2023-04-21T08:09:15.672Z,55.31
2023-04-21T08:11:47.995Z,56.85
2023-04-21T08:14:17.726Z,55.99
2023-04-21T08:16:51.499Z,56.68
2023-04-21T08:19:24.354Z,56.35
2023-04-21T08:21:58.844Z,55.30
2023-04-21T08:24:30.881Z,55.01
2023-04-21T08:27:02.410Z,55.49
2023-04-21T08:29:32.433Z,55.38
2023-04-21T08:32:02.108Z,54.82
2023-04-21T08:34:32.789Z,53.02
2023-04-21T08:37:04.768Z,53.72
2023-04-21T08:39:38.641Z,52.82
2023-04-21T08:42:15.394Z,53.94
2023-04-21T08:44:48.108Z,53.70
2023-04-21T08:47:25.705Z,53.53
2023-04-21T08:49:59.132Z,54.53
2023-04-21T08:52:28.497Z,55.29
2023-04-21T08:55:01.783Z,54.77
2023-04-21T08:57:31.109Z,53.88
2023-04-21T09:00:00.390Z,52.89
2023-04-21T09:03:01.473Z,53.77
2023-04-21T09:05:33.039Z,54.21
2023-04-21T09:08:16.351Z,55.16
2023-04-21T09:10:47.918Z,54.67
2023-04-21T09:13:22.667Z,55.45
2023-04-21T09:15:52.761Z,54.60
2023-04-21T09:18:24.502Z,54.27
2023-04-21T09:21:10.177Z,53.92
2023-04-21T09:23:52.858Z,54.98
2023-04-21T09:26:23.247Z,54.72
2023-04-21T09:28:54.068Z,54.19
2023-04-21T09:31:24.724Z,54.87
2023-04-21T09:33:59.657Z,54.59
2023-04-21T09:36:33.715Z,54.21
2023-04-21T09:41:46.844Z,53.21
2023-04-21T09:44:17.142Z,53.03
2023-04-21T09:46:50.542Z,53.05
2023-04-21T09:49:27.385Z,51.56
2023-04-21T09:52:17.646Z,52.74
2023-04-21T09:54:56.240Z,53.57
2023-04-21T09:57:30.505Z,52.78
2023-04-21T10:00:04.874Z,52.85
2023-04-21T10:02:37.383Z,52.44
2023-04-21T10:05:13.650Z,50.69
2023-04-21T10:07:49.988Z,51.03
2023-04-21T10:10:23.600Z,51.25
2023-04-21T10:12:53.666Z,49.16
2023-04-21T10:15:32.937Z,51.25
2023-04-21T10:18:20.570Z,51.23
2023-04-21T10:21:00.018Z,51.14
2023-04-21T10:23:38.497Z,51.07
2023-04-21T10:26:12.080Z,51.09
2023-04-21T10:28:46.933Z,49.16
2023-04-21T10:31:29.901Z,48.08
2023-04-21T10:34:25.355Z,47.53
2023-04-21T10:37:15.675Z,46.44
2023-04-21T10:39:54.893Z,45.93
2023-04-21T10:42:34.593Z,45.73
2023-04-21T10:45:16.499Z,47.01
2023-04-21T10:47:56.227Z,45.73
2023-04-21T10:50:30.799Z,46.52
2023-04-21T10:53:12.332Z,44.35
2023-04-21T10:55:49.150Z,44.76
2023-04-21T10:58:25.376Z,45.77
2023-04-21T11:00:59.288Z,44.86
2023-04-21T11:03:35.623Z,44.55
2023-04-21T11:06:18.069Z,44.57
2023-04-21T11:09:03.195Z,44.67
2023-04-21T11:11:32.639Z,44.44
2023-04-21T11:14:07.236Z,44.22
2023-04-21T11:16:37.750Z,43.84
2023-04-21T11:19:07.894Z,43.94
2023-04-21T11:21:37.449Z,42.25
2023-04-21T11:24:13.828Z,41.23
2023-04-21T11:26:44.653Z,41.40
2023-04-21T11:29:15.481Z,40.67
2023-04-21T11:32:00.654Z,41.85
2023-04-21T11:34:30.460Z,40.54
2023-04-21T11:40:01.691Z,42.26
2023-04-21T11:42:42.407Z,41.81
2023-04-21T11:45:22.808Z,41.31
2023-04-21T11:48:13.750Z,41.06
2023-04-21T11:50:48.521Z,42.17
2023-04-21T11:53:21.306Z,40.02
2023-04-21T11:55:51.243Z,39.77
2023-04-21T11:58:22.177Z,39.59
2023-04-21T12:00:53.041Z,38.59
2023-04-21T12:03:23.802Z,38.31
2023-04-21T12:06:00.646Z,39.19
2023-04-21T12:08:35.286Z,40.19
2023-04-21T12:11:07.786Z,38.46
2023-04-21T12:13:47.047Z,39.17
2023-04-21T12:16:16.841Z,38.86
2023-04-21T12:18:47.930Z,39.64
2023-04-21T12:21:17.721Z,39.18
2023-04-21T12:23:47.467Z,39.58
2023-04-21T12:26:16.983Z,39.47
2023-04-21T12:28:48.405Z,37.55
2023-04-21T12:31:20.979Z,38.24
2023-04-21T12:33:51.754Z,39.24
2023-04-21T12:36:21.745Z,38.16
2023-04-21T12:38:56.317Z,38.48
2023-04-21T12:41:25.899Z,38.58
2023-04-21T12:44:00.518Z,37.48
2023-04-21T12:46:32.878Z,35.30
2023-04-21T12:49:10.177Z,36.99
2023-04-21T12:51:41.624Z,36.62
2023-04-21T12:54:11.586Z,37.40
2023-04-21T12:56:42.351Z,38.25
2023-04-21T12:59:14.595Z,37.74
2023-04-21T13:01:45.326Z,37.08
2023-04-21T13:04:16.331Z,37.79
2023-04-21T13:06:48.177Z,36.99
2023-04-21T13:09:18.459Z,36.73
2023-04-21T13:11:48.638Z,37.61
2023-04-21T13:14:19.688Z,37.51
2023-04-21T13:16:49.308Z,36.66
2023-04-21T13:19:19.760Z,35.92
2023-04-21T13:21:52.055Z,34.23
2023-04-21T13:24:25.406Z,34.39
2023-04-21T13:26:54.561Z,34.47
2023-04-21T13:29:28.728Z,34.49
2023-04-21T13:31:58.229Z,33.41
2023-04-21T13:34:28.300Z,35.18
2023-04-21T13:36:57.769Z,35.42
2023-04-21T13:39:27.471Z,34.23
2023-04-21T13:41:57.539Z,33.28
2023-04-21T13:44:27.772Z,34.83
2023-04-21T13:46:57.496Z,35.13
2023-04-21T13:49:28.105Z,34.62
2023-04-21T13:51:57.375Z,35.23
2023-04-21T13:54:27.831Z,34.95
2023-04-21T13:56:58.120Z,34.91
2023-04-21T13:59:29.005Z,35.03
2023-04-21T14:01:58.470Z,35.69
2023-04-21T14:04:28.147Z,36.14
2023-04-21T14:06:57.811Z,36.30
2023-04-21T14:09:27.819Z,36.14
2023-04-21T14:11:57.175Z,36.11
2023-04-21T14:14:37.951Z,35.48
2023-04-21T14:17:09.317Z,36.42
2023-04-21T14:19:39.264Z,36.36
2023-04-21T14:22:11.631Z,36.23
2023-04-21T14:24:46.286Z,35.72
2023-04-21T14:27:15.905Z,35.08
2023-04-21T14:29:45.401Z,35.78
2023-04-21T14:32:15.741Z,35.46
2023-04-21T14:34:47.360Z,35.00
2023-04-21T14:37:17.843Z,36.00
2023-04-21T14:39:50.832Z,36.25
2023-04-21T14:42:23.241Z,36.24
2023-04-21T14:44:54.156Z,36.55
2023-04-21T14:47:32.828Z,36.08
2023-04-21T14:50:03.441Z,36.36
2023-04-21T14:52:34.690Z,36.93
2023-04-21T14:55:12.903Z,37.05
2023-04-21T14:57:44.078Z,37.19
2023-04-21T15:00:17.398Z,37.44
2023-04-21T15:02:48.413Z,38.03
2023-04-21T15:05:23.732Z,38.04
2023-04-21T15:07:58.130Z,38.10
2023-04-21T15:10:31.766Z,38.52
2023-04-21T15:13:04.521Z,38.24
2023-04-21T15:15:34.397Z,37.97
2023-04-21T15:18:05.519Z,38.19
2023-04-21T15:23:47.961Z,38.05
2023-04-21T15:29:55.728Z,36.96
2023-04-21T15:29:55.737Z,37.40
2023-04-21T15:32:26.004Z,36.84
2023-04-21T15:34:58.024Z,37.51
2023-04-21T15:37:27.897Z,37.53
2023-04-21T15:41:00.188Z,37.78
2023-04-21T15:44:17.921Z,37.65
2023-04-21T15:47:38.968Z,38.45
2023-04-21T15:50:52.130Z,38.53
2023-04-21T15:54:03.479Z,38.37
2023-04-21T15:57:02.103Z,38.44
2023-04-21T16:00:24.223Z,38.55
2023-04-21T16:04:39.785Z,38.86
2023-04-21T16:10:31.187Z,39.18
2023-04-21T16:13:57.566Z,39.23
2023-04-21T16:16:54.061Z,39.46
2023-04-21T16:20:03.400Z,39.83
2023-04-21T16:23:03.884Z,40.00
2023-04-21T16:36:05.047Z,40.00
2023-04-21T16:37:55.979Z,40.44
2023-04-21T16:40:36.758Z,40.70
2023-04-21T16:55:04.035Z,41.41
2023-04-21T16:57:51.989Z,41.69
2023-04-21T17:00:22.775Z,41.67
2023-04-21T17:02:53.313Z,41.75
2023-04-21T17:05:28.682Z,41.91
2023-04-21T17:21:59.532Z,42.47
2023-04-21T17:22:13.771Z,42.05
2023-04-21T17:24:33.151Z,42.63
2023-04-21T17:27:14.426Z,42.77
2023-04-21T17:29:43.799Z,42.90
2023-04-21T17:32:19.069Z,42.95
2023-04-21T17:34:51.392Z,43.00
2023-04-21T17:37:22.324Z,42.92
2023-04-21T17:39:54.082Z,43.32
2023-04-21T17:42:33.160Z,43.62
2023-04-21T17:45:16.233Z,43.99
2023-04-21T17:47:46.255Z,44.35
2023-04-21T17:50:20.318Z,44.38
2023-04-21T17:52:51.908Z,44.55
2023-04-21T17:55:26.528Z,44.52
2023-04-21T17:57:57.916Z,44.75
2023-04-21T18:00:28.959Z,44.76
2023-04-21T18:02:58.143Z,45.13
2023-04-21T18:05:30.192Z,45.19
2023-04-21T18:13:44.539Z,45.68
2023-04-21T18:26:38.015Z,46.31
2023-04-21T18:27:57.946Z,46.41
2023-04-21T18:28:28.601Z,45.41
2023-04-21T18:30:28.788Z,46.60
2023-04-21T18:33:01.307Z,46.53
2023-04-21T18:35:34.315Z,46.38
2023-04-21T18:38:07.323Z,46.41
2023-04-21T18:40:37.669Z,46.38
2023-04-21T18:43:07.268Z,46.58
2023-04-21T18:54:09.253Z,46.99
2023-04-21T18:56:32.806Z,46.53
2023-04-21T18:56:47.601Z,47.03
2023-04-21T18:59:17.353Z,46.91
2023-04-21T19:00:40.171Z,46.74
2023-04-21T19:01:54.115Z,47.15
2023-04-21T19:04:26.962Z,47.24
2023-04-21T19:07:01.343Z,47.19
2023-04-21T19:10:00.482Z,47.36
2023-04-21T19:12:30.079Z,47.97
2023-04-21T19:15:08.102Z,48.00
2023-04-21T19:17:56.092Z,48.18
2023-04-21T19:20:25.334Z,48.22
2023-04-21T19:22:54.907Z,48.51
2023-04-21T19:25:25.148Z,48.66
2023-04-21T19:28:03.451Z,48.62
2023-04-21T19:30:33.338Z,48.77
2023-04-21T19:33:04.785Z,48.93
2023-04-21T19:35:34.836Z,48.98
2023-04-21T19:38:04.629Z,48.99
2023-04-21T19:40:36.414Z,49.09
2023-04-21T19:43:08.577Z,49.21
2023-04-21T19:45:38.238Z,49.41
2023-04-21T19:48:08.298Z,49.45
2023-04-21T19:50:40.934Z,49.60
2023-04-21T19:53:14.150Z,49.64
2023-04-21T19:55:48.128Z,49.68
2023-04-21T19:58:38.984Z,49.85
2023-04-21T20:01:10.493Z,50.11
2023-04-21T20:03:41.836Z,50.28
2023-04-21T20:06:12.627Z,50.34
2023-04-21T20:08:42.427Z,50.46
2023-04-21T20:11:12.098Z,50.69
2023-04-21T20:13:41.382Z,50.89
2023-04-21T20:16:11.297Z,50.80
2023-04-21T20:18:41.521Z,50.98
2023-04-21T20:21:11.366Z,51.15
2023-04-21T20:23:40.792Z,51.20
2023-04-21T20:26:10.275Z,51.45
2023-04-21T20:28:44.790Z,51.52
2023-04-21T20:31:18.737Z,51.64
2023-04-21T20:33:48.672Z,51.82
2023-04-21T20:36:24.620Z,51.98
2023-04-21T20:39:02.183Z,52.02
2023-04-21T20:42:13.105Z,52.21
2023-04-21T20:44:43.380Z,52.27
2023-04-21T20:47:16.985Z,52.37
2023-04-21T20:49:47.157Z,52.43
2023-04-21T20:52:18.006Z,52.55
2023-04-21T20:54:47.375Z,52.62
2023-04-21T20:57:17.352Z,52.71
2023-04-21T20:59:57.648Z,52.74
2023-04-21T21:02:31.351Z,52.92
2023-04-21T21:05:04.340Z,53.06
2023-04-21T21:07:34.249Z,53.23
2023-04-21T21:10:10.862Z,53.37
2023-04-21T21:12:42.183Z,53.47
2023-04-21T21:15:13.562Z,53.65
2023-04-21T21:17:43.078Z,53.88
2023-04-21T21:20:12.981Z,53.92
2023-04-21T21:23:33.153Z,54.22
2023-04-21T21:26:02.797Z,54.32
2023-04-21T21:32:32.138Z,54.71
2023-04-21T21:35:11.373Z,54.81
2023-04-21T21:37:41.298Z,54.90
2023-04-21T21:40:14.177Z,55.05
2023-04-21T21:42:43.854Z,55.11
2023-04-21T21:45:21.534Z,55.17
2023-04-21T21:52:08.432Z,55.47
2023-04-21T21:53:17.465Z,55.41
2023-04-21T21:54:41.089Z,55.48
2023-04-21T21:57:21.085Z,55.43
2023-04-21T22:00:04.557Z,55.41
2023-04-21T22:02:36.806Z,55.52
2023-04-21T22:05:07.534Z,55.50
2023-04-21T22:07:40.342Z,55.45
2023-04-21T22:10:14.423Z,55.42
2023-04-21T22:12:45.413Z,55.52
2023-04-21T22:15:16.354Z,55.62
2023-04-21T22:17:48.565Z,55.59
2023-04-21T22:20:36.720Z,55.73
2023-04-21T22:23:11.841Z,55.74
2023-04-21T22:25:41.888Z,55.68
2023-04-21T22:28:11.583Z,55.86
2023-04-21T22:30:41.473Z,55.73
2023-04-21T22:33:13.811Z,55.79
2023-04-21T22:35:43.927Z,55.73
2023-04-21T22:38:16.980Z,55.78
2023-04-21T22:40:48.129Z,55.76
2023-04-21T22:43:18.585Z,55.80
2023-04-21T22:45:50.187Z,55.89
2023-04-21T22:48:25.683Z,55.84
2023-04-21T22:50:58.613Z,55.82
2023-04-21T22:53:34.336Z,55.87
2023-04-21T22:56:08.029Z,55.95
2023-04-21T22:58:37.587Z,56.05
2023-04-21T23:01:13.291Z,56.12
2023-04-21T23:03:43.392Z,56.23
2023-04-21T23:20:57.697Z,56.05
2023-04-21T23:23:27.206Z,55.81
2023-04-21T23:25:56.808Z,55.67
2023-04-21T23:28:27.185Z,55.72
2023-04-21T23:30:56.676Z,55.60
2023-04-21T23:33:29.869Z,55.70
2023-04-21T23:36:03.279Z,55.64
2023-04-21T23:38:33.914Z,55.69
2023-04-21T23:41:06.278Z,55.82
2023-04-21T23:43:42.545Z,55.83
2023-04-21T23:46:12.846Z,55.93
2023-04-21T23:48:42.853Z,55.93
2023-04-21T23:51:18.788Z,55.95
2023-04-21T23:53:49.761Z,55.99
2023-04-21T23:56:24.060Z,55.91
2023-04-21T23:58:54.787Z,56.07
